sensor_id;sensor_type;location;lat;lon;timestamp;P1;durP1;ratioP1;P2;durP2;ratioP2
51588;SDS011;37671;53.258;6.460;2022-10-23T00:02:08;23.85;;;7.65;;
51588;SDS011;37671;53.258;6.460;2022-10-23T00:04:34;19.92;;;8.20;;
51588;SDS011;37671;53.258;6.460;2022-10-23T00:06:59;28.75;;;8.52;;
51588;SDS011;37671;53.258;6.460;2022-10-23T00:09:26;22.08;;;8.77;;
51588;SDS011;37671;53.258;6.460;2022-10-23T00:11:52;20.10;;;8.32;;
51588;SDS011;37671;53.258;6.460;2022-10-23T00:14:19;18.23;;;7.95;;
51588;SDS011;37671;53.258;6.460;2022-10-23T00:16:46;19.45;;;8.32;;
51588;SDS011;37671;53.258;6.460;2022-10-23T00:19:12;17.55;;;7.68;;
51588;SDS011;37671;53.258;6.460;2022-10-23T00:21:38;14.05;;;6.32;;
51588;SDS011;37671;53.258;6.460;2022-10-23T00:24:04;19.90;;;8.20;;
51588;SDS011;37671;53.258;6.460;2022-10-23T00:26:30;19.45;;;8.65;;
51588;SDS011;37671;53.258;6.460;2022-10-23T00:28:56;17.52;;;8.15;;
51588;SDS011;37671;53.258;6.460;2022-10-23T00:31:22;19.65;;;7.68;;
51588;SDS011;37671;53.258;6.460;2022-10-23T00:33:48;17.33;;;8.35;;
51588;SDS011;37671;53.258;6.460;2022-10-23T00:36:15;14.05;;;7.25;;
51588;SDS011;37671;53.258;6.460;2022-10-23T00:38:43;18.92;;;7.28;;
51588;SDS011;37671;53.258;6.460;2022-10-23T00:41:13;15.25;;;7.60;;
51588;SDS011;37671;53.258;6.460;2022-10-23T00:46:41;20.80;;;7.85;;
51588;SDS011;37671;53.258;6.460;2022-10-23T00:49:08;21.88;;;7.53;;
51588;SDS011;37671;53.258;6.460;2022-10-23T00:51:35;17.05;;;8.52;;
51588;SDS011;37671;53.258;6.460;2022-10-23T00:54:05;17.15;;;7.57;;
51588;SDS011;37671;53.258;6.460;2022-10-23T00:56:32;19.02;;;8.70;;
51588;SDS011;37671;53.258;6.460;2022-10-23T00:58:59;17.67;;;9.00;;
51588;SDS011;37671;53.258;6.460;2022-10-23T01:01:25;23.15;;;9.15;;
51588;SDS011;37671;53.258;6.460;2022-10-23T01:03:51;23.08;;;9.07;;
51588;SDS011;37671;53.258;6.460;2022-10-23T01:06:25;22.30;;;9.07;;
51588;SDS011;37671;53.258;6.460;2022-10-23T01:11:52;19.60;;;9.70;;
51588;SDS011;37671;53.258;6.460;2022-10-23T01:14:42;22.50;;;10.77;;
51588;SDS011;37671;53.258;6.460;2022-10-23T06:03:11;24.70;;;14.75;;
51588;SDS011;37671;53.258;6.460;2022-10-23T06:05:36;27.83;;;14.40;;
51588;SDS011;37671;53.258;6.460;2022-10-23T06:08:02;26.05;;;15.63;;
51588;SDS011;37671;53.258;6.460;2022-10-23T06:10:28;28.85;;;14.77;;
51588;SDS011;37671;53.258;6.460;2022-10-23T06:12:56;28.92;;;15.48;;
51588;SDS011;37671;53.258;6.460;2022-10-23T06:15:21;28.23;;;16.23;;
51588;SDS011;37671;53.258;6.460;2022-10-23T06:17:47;28.75;;;14.85;;
51588;SDS011;37671;53.258;6.460;2022-10-23T06:20:12;25.15;;;15.40;;
51588;SDS011;37671;53.258;6.460;2022-10-23T06:22:38;29.80;;;15.35;;
51588;SDS011;37671;53.258;6.460;2022-10-23T06:25:04;28.05;;;15.55;;
51588;SDS011;37671;53.258;6.460;2022-10-23T06:27:30;26.13;;;14.73;;
51588;SDS011;37671;53.258;6.460;2022-10-23T06:29:55;28.45;;;14.55;;
51588;SDS011;37671;53.258;6.460;2022-10-23T06:32:21;32.22;;;16.35;;
51588;SDS011;37671;53.258;6.460;2022-10-23T06:34:46;30.17;;;16.35;;
51588;SDS011;37671;53.258;6.460;2022-10-23T06:37:12;30.95;;;16.27;;
51588;SDS011;37671;53.258;6.460;2022-10-23T06:39:38;30.58;;;15.60;;
51588;SDS011;37671;53.258;6.460;2022-10-23T06:42:04;27.83;;;16.27;;
51588;SDS011;37671;53.258;6.460;2022-10-23T06:44:30;32.10;;;16.00;;
51588;SDS011;37671;53.258;6.460;2022-10-23T06:46:56;25.50;;;15.30;;
51588;SDS011;37671;53.258;6.460;2022-10-23T06:49:21;32.63;;;16.02;;
51588;SDS011;37671;53.258;6.460;2022-10-23T06:51:47;30.50;;;16.67;;
51588;SDS011;37671;53.258;6.460;2022-10-23T06:54:13;26.33;;;15.35;;
51588;SDS011;37671;53.258;6.460;2022-10-23T06:56:38;24.63;;;15.07;;
51588;SDS011;37671;53.258;6.460;2022-10-23T06:59:04;29.80;;;15.35;;
51588;SDS011;37671;53.258;6.460;2022-10-23T07:01:31;23.98;;;13.95;;
51588;SDS011;37671;53.258;6.460;2022-10-23T07:03:57;21.92;;;13.57;;
51588;SDS011;37671;53.258;6.460;2022-10-23T07:06:23;25.95;;;14.90;;
51588;SDS011;37671;53.258;6.460;2022-10-23T07:08:49;24.48;;;14.70;;
51588;SDS011;37671;53.258;6.460;2022-10-23T07:11:14;27.30;;;15.23;;
51588;SDS011;37671;53.258;6.460;2022-10-23T07:13:43;28.40;;;15.35;;
51588;SDS011;37671;53.258;6.460;2022-10-23T07:18:41;23.98;;;13.95;;
51588;SDS011;37671;53.258;6.460;2022-10-23T07:21:07;23.77;;;15.30;;
51588;SDS011;37671;53.258;6.460;2022-10-23T07:23:34;25.23;;;14.20;;
51588;SDS011;37671;53.258;6.460;2022-10-23T07:26:03;28.98;;;14.73;;
51588;SDS011;37671;53.258;6.460;2022-10-23T07:28:33;27.40;;;14.53;;
51588;SDS011;37671;53.258;6.460;2022-10-23T07:30:59;26.98;;;14.35;;
51588;SDS011;37671;53.258;6.460;2022-10-23T07:33:25;23.23;;;13.85;;
51588;SDS011;37671;53.258;6.460;2022-10-23T07:35:51;28.73;;;15.52;;
51588;SDS011;37671;53.258;6.460;2022-10-23T07:38:17;27.58;;;14.63;;
51588;SDS011;37671;53.258;6.460;2022-10-23T07:40:43;25.48;;;13.95;;
51588;SDS011;37671;53.258;6.460;2022-10-23T07:43:09;25.20;;;13.93;;
51588;SDS011;37671;53.258;6.460;2022-10-23T07:45:35;23.85;;;13.40;;
51588;SDS011;37671;53.258;6.460;2022-10-23T07:48:00;24.52;;;14.25;;
51588;SDS011;37671;53.258;6.460;2022-10-23T07:50:26;22.63;;;13.00;;
51588;SDS011;37671;53.258;6.460;2022-10-23T07:52:51;25.85;;;13.30;;
51588;SDS011;37671;53.258;6.460;2022-10-23T07:55:17;25.02;;;13.40;;
51588;SDS011;37671;53.258;6.460;2022-10-23T07:57:43;20.58;;;12.68;;
51588;SDS011;37671;53.258;6.460;2022-10-23T08:00:09;22.67;;;12.93;;
51588;SDS011;37671;53.258;6.460;2022-10-23T08:02:35;23.60;;;12.32;;
51588;SDS011;37671;53.258;6.460;2022-10-23T08:05:01;22.52;;;13.27;;
51588;SDS011;37671;53.258;6.460;2022-10-23T08:07:27;23.00;;;11.55;;
51588;SDS011;37671;53.258;6.460;2022-10-23T08:09:52;22.90;;;12.38;;
51588;SDS011;37671;53.258;6.460;2022-10-23T08:12:18;21.02;;;12.30;;
51588;SDS011;37671;53.258;6.460;2022-10-23T08:14:44;22.75;;;12.38;;
51588;SDS011;37671;53.258;6.460;2022-10-23T08:17:09;17.98;;;11.70;;
51588;SDS011;37671;53.258;6.460;2022-10-23T08:19:35;19.40;;;12.00;;
51588;SDS011;37671;53.258;6.460;2022-10-23T08:22:01;19.02;;;11.70;;
51588;SDS011;37671;53.258;6.460;2022-10-23T08:24:27;17.95;;;11.18;;
51588;SDS011;37671;53.258;6.460;2022-10-23T08:26:53;17.55;;;10.73;;
51588;SDS011;37671;53.258;6.460;2022-10-23T08:29:19;19.45;;;11.15;;
51588;SDS011;37671;53.258;6.460;2022-10-23T08:31:44;23.40;;;12.05;;
51588;SDS011;37671;53.258;6.460;2022-10-23T08:34:10;17.75;;;10.38;;
51588;SDS011;37671;53.258;6.460;2022-10-23T08:36:36;19.42;;;10.38;;
51588;SDS011;37671;53.258;6.460;2022-10-23T08:39:03;19.45;;;10.20;;
51588;SDS011;37671;53.258;6.460;2022-10-23T08:41:34;16.45;;;9.75;;
51588;SDS011;37671;53.258;6.460;2022-10-23T08:44:19;17.75;;;10.50;;
51588;SDS011;37671;53.258;6.460;2022-10-23T08:46:51;21.38;;;10.13;;
51588;SDS011;37671;53.258;6.460;2022-10-23T08:52:23;17.48;;;8.82;;
51588;SDS011;37671;53.258;6.460;2022-10-23T08:57:37;19.25;;;9.38;;
51588;SDS011;37671;53.258;6.460;2022-10-23T09:00:13;17.95;;;8.57;;
51588;SDS011;37671;53.258;6.460;2022-10-23T09:02:41;14.02;;;9.75;;
51588;SDS011;37671;53.258;6.460;2022-10-23T09:05:30;16.02;;;8.45;;
51588;SDS011;37671;53.258;6.460;2022-10-23T09:11:03;12.95;;;8.40;;
51588;SDS011;37671;53.258;6.460;2022-10-23T09:18:54;14.85;;;9.40;;
51588;SDS011;37671;53.258;6.460;2022-10-23T09:21:25;20.55;;;9.00;;
51588;SDS011;37671;53.258;6.460;2022-10-23T09:23:52;14.68;;;8.23;;
51588;SDS011;37671;53.258;6.460;2022-10-23T09:26:18;13.93;;;8.02;;
51588;SDS011;37671;53.258;6.460;2022-10-23T09:28:51;14.63;;;8.45;;
51588;SDS011;37671;53.258;6.460;2022-10-23T09:31:21;14.25;;;7.88;;
51588;SDS011;37671;53.258;6.460;2022-10-23T09:33:57;11.88;;;7.03;;
51588;SDS011;37671;53.258;6.460;2022-10-23T09:36:25;14.52;;;7.07;;
51588;SDS011;37671;53.258;6.460;2022-10-23T09:38:53;15.63;;;6.93;;
51588;SDS011;37671;53.258;6.460;2022-10-23T09:41:22;13.30;;;7.68;;
51588;SDS011;37671;53.258;6.460;2022-10-23T09:46:46;14.82;;;7.15;;
51588;SDS011;37671;53.258;6.460;2022-10-23T09:49:23;18.77;;;7.32;;
51588;SDS011;37671;53.258;6.460;2022-10-23T09:54:47;11.80;;;6.40;;
51588;SDS011;37671;53.258;6.460;2022-10-23T09:57:21;14.95;;;6.45;;
51588;SDS011;37671;53.258;6.460;2022-10-23T10:00:01;13.73;;;6.70;;
51588;SDS011;37671;53.258;6.460;2022-10-23T10:02:41;11.25;;;5.90;;
51588;SDS011;37671;53.258;6.460;2022-10-23T10:05:31;13.27;;;6.35;;
51588;SDS011;37671;53.258;6.460;2022-10-23T10:08:17;13.30;;;6.10;;
51588;SDS011;37671;53.258;6.460;2022-10-23T10:10:53;11.73;;;5.80;;
51588;SDS011;37671;53.258;6.460;2022-10-23T10:21:23;11.32;;;5.47;;
51588;SDS011;37671;53.258;6.460;2022-10-23T10:23:58;11.13;;;5.50;;
51588;SDS011;37671;53.258;6.460;2022-10-23T10:29:23;9.68;;;5.03;;
51588;SDS011;37671;53.258;6.460;2022-10-23T10:45:33;10.13;;;4.50;;
51588;SDS011;37671;53.258;6.460;2022-10-23T10:51:07;9.20;;;4.60;;
51588;SDS011;37671;53.258;6.460;2022-10-23T10:56:32;9.35;;;5.25;;
51588;SDS011;37671;53.258;6.460;2022-10-23T10:59:04;11.80;;;4.30;;
51588;SDS011;37671;53.258;6.460;2022-10-23T11:01:41;9.93;;;4.28;;
51588;SDS011;37671;53.258;6.460;2022-10-23T11:04:29;10.82;;;4.05;;
51588;SDS011;37671;53.258;6.460;2022-10-23T11:07:14;13.07;;;3.90;;
51588;SDS011;37671;53.258;6.460;2022-10-23T11:09:46;8.13;;;3.50;;
51588;SDS011;37671;53.258;6.460;2022-10-23T11:12:20;11.30;;;3.63;;
51588;SDS011;37671;53.258;6.460;2022-10-23T11:14:48;10.32;;;4.10;;
51588;SDS011;37671;53.258;6.460;2022-10-23T11:17:19;10.55;;;3.67;;
51588;SDS011;37671;53.258;6.460;2022-10-23T11:20:01;8.23;;;3.92;;
51588;SDS011;37671;53.258;6.460;2022-10-23T11:26:03;7.80;;;3.40;;
51588;SDS011;37671;53.258;6.460;2022-10-23T11:28:38;8.20;;;3.97;;
51588;SDS011;37671;53.258;6.460;2022-10-23T11:31:22;10.25;;;3.50;;
51588;SDS011;37671;53.258;6.460;2022-10-23T11:36:45;8.20;;;3.53;;
51588;SDS011;37671;53.258;6.460;2022-10-23T11:41:53;10.57;;;3.90;;
51588;SDS011;37671;53.258;6.460;2022-10-23T11:44:21;10.98;;;4.30;;
51588;SDS011;37671;53.258;6.460;2022-10-23T11:47:25;7.70;;;3.90;;
51588;SDS011;37671;53.258;6.460;2022-10-23T11:50:09;10.93;;;4.03;;
51588;SDS011;37671;53.258;6.460;2022-10-23T11:52:38;11.13;;;4.03;;
51588;SDS011;37671;53.258;6.460;2022-10-23T11:55:24;9.02;;;3.75;;
51588;SDS011;37671;53.258;6.460;2022-10-23T11:58:06;11.73;;;4.40;;
51588;SDS011;37671;53.258;6.460;2022-10-23T12:00:53;9.77;;;4.25;;
51588;SDS011;37671;53.258;6.460;2022-10-23T12:03:27;11.18;;;3.83;;
51588;SDS011;37671;53.258;6.460;2022-10-23T12:06:05;9.63;;;3.65;;
51588;SDS011;37671;53.258;6.460;2022-10-23T12:08:42;13.23;;;4.30;;
51588;SDS011;37671;53.258;6.460;2022-10-23T12:11:23;8.35;;;3.80;;
51588;SDS011;37671;53.258;6.460;2022-10-23T12:13:51;10.48;;;3.70;;
51588;SDS011;37671;53.258;6.460;2022-10-23T12:16:16;9.13;;;3.67;;
51588;SDS011;37671;53.258;6.460;2022-10-23T12:18:46;7.20;;;3.28;;
51588;SDS011;37671;53.258;6.460;2022-10-23T12:21:20;7.00;;;2.85;;
51588;SDS011;37671;53.258;6.460;2022-10-23T12:37:39;8.90;;;2.95;;
51588;SDS011;37671;53.258;6.460;2022-10-23T12:40:19;9.57;;;3.30;;
51588;SDS011;37671;53.258;6.460;2022-10-23T12:42:50;7.35;;;3.15;;
51588;SDS011;37671;53.258;6.460;2022-10-23T12:45:19;9.40;;;2.88;;
51588;SDS011;37671;53.258;6.460;2022-10-23T12:47:48;8.15;;;3.28;;
51588;SDS011;37671;53.258;6.460;2022-10-23T12:50:25;8.05;;;2.78;;
51588;SDS011;37671;53.258;6.460;2022-10-23T12:52:54;10.60;;;3.60;;
51588;SDS011;37671;53.258;6.460;2022-10-23T12:55:23;7.82;;;3.30;;
51588;SDS011;37671;53.258;6.460;2022-10-23T12:57:49;7.78;;;3.08;;
51588;SDS011;37671;53.258;6.460;2022-10-23T13:00:18;5.97;;;2.80;;
51588;SDS011;37671;53.258;6.460;2022-10-23T13:03:09;6.53;;;3.05;;
51588;SDS011;37671;53.258;6.460;2022-10-23T13:05:34;12.10;;;3.30;;
51588;SDS011;37671;53.258;6.460;2022-10-23T13:08:01;7.00;;;3.17;;
51588;SDS011;37671;53.258;6.460;2022-10-23T13:10:27;12.02;;;3.60;;
51588;SDS011;37671;53.258;6.460;2022-10-23T13:12:57;7.35;;;3.15;;
51588;SDS011;37671;53.258;6.460;2022-10-23T13:15:24;9.70;;;3.10;;
51588;SDS011;37671;53.258;6.460;2022-10-23T13:18:01;7.70;;;3.10;;
51588;SDS011;37671;53.258;6.460;2022-10-23T13:20:32;7.00;;;3.33;;
51588;SDS011;37671;53.258;6.460;2022-10-23T13:26:20;7.82;;;3.00;;
51588;SDS011;37671;53.258;6.460;2022-10-23T13:28:52;5.93;;;2.53;;
51588;SDS011;37671;53.258;6.460;2022-10-23T13:31:32;10.38;;;3.13;;
51588;SDS011;37671;53.258;6.460;2022-10-23T13:36:24;13.18;;;3.00;;
51588;SDS011;37671;53.258;6.460;2022-10-23T13:41:26;7.20;;;3.10;;
51588;SDS011;37671;53.258;6.460;2022-10-23T13:43:53;6.05;;;2.92;;
51588;SDS011;37671;53.258;6.460;2022-10-23T13:46:20;8.48;;;3.00;;
51588;SDS011;37671;53.258;6.460;2022-10-23T13:48:49;7.78;;;3.10;;
51588;SDS011;37671;53.258;6.460;2022-10-23T13:51:16;10.52;;;3.03;;
51588;SDS011;37671;53.258;6.460;2022-10-23T13:53:54;9.55;;;3.00;;
51588;SDS011;37671;53.258;6.460;2022-10-23T13:56:21;10.95;;;2.85;;
51588;SDS011;37671;53.258;6.460;2022-10-23T13:58:48;7.47;;;2.60;;
51588;SDS011;37671;53.258;6.460;2022-10-23T14:01:15;7.43;;;2.63;;
51588;SDS011;37671;53.258;6.460;2022-10-23T14:03:48;8.20;;;2.97;;
51588;SDS011;37671;53.258;6.460;2022-10-23T14:06:14;7.38;;;2.67;;
51588;SDS011;37671;53.258;6.460;2022-10-23T14:08:40;7.15;;;2.65;;
51588;SDS011;37671;53.258;6.460;2022-10-23T14:11:06;5.75;;;2.45;;
51588;SDS011;37671;53.258;6.460;2022-10-23T14:13:31;7.25;;;2.60;;
51588;SDS011;37671;53.258;6.460;2022-10-23T14:15:57;6.65;;;2.80;;
51588;SDS011;37671;53.258;6.460;2022-10-23T14:18:22;8.38;;;2.60;;
51588;SDS011;37671;53.258;6.460;2022-10-23T14:20:48;10.13;;;2.88;;
51588;SDS011;37671;53.258;6.460;2022-10-23T14:23:14;10.52;;;2.80;;
51588;SDS011;37671;53.258;6.460;2022-10-23T14:25:40;7.13;;;2.28;;
51588;SDS011;37671;53.258;6.460;2022-10-23T14:28:05;11.00;;;2.63;;
51588;SDS011;37671;53.258;6.460;2022-10-23T14:30:31;8.20;;;2.50;;
51588;SDS011;37671;53.258;6.460;2022-10-23T14:32:57;7.82;;;2.47;;
51588;SDS011;37671;53.258;6.460;2022-10-23T14:35:22;10.52;;;2.50;;
51588;SDS011;37671;53.258;6.460;2022-10-23T14:37:49;11.20;;;2.53;;
51588;SDS011;37671;53.258;6.460;2022-10-23T14:40:15;8.43;;;3.00;;
51588;SDS011;37671;53.258;6.460;2022-10-23T14:42:40;5.65;;;2.45;;
51588;SDS011;37671;53.258;6.460;2022-10-23T14:45:06;7.88;;;2.53;;
51588;SDS011;37671;53.258;6.460;2022-10-23T14:47:32;5.20;;;2.65;;
51588;SDS011;37671;53.258;6.460;2022-10-23T14:49:58;7.05;;;2.38;;
51588;SDS011;37671;53.258;6.460;2022-10-23T14:52:23;7.95;;;2.55;;
51588;SDS011;37671;53.258;6.460;2022-10-23T14:54:50;7.15;;;2.55;;
51588;SDS011;37671;53.258;6.460;2022-10-23T14:57:17;6.18;;;2.38;;
51588;SDS011;37671;53.258;6.460;2022-10-23T14:59:45;8.80;;;2.45;;
51588;SDS011;37671;53.258;6.460;2022-10-23T15:02:11;7.55;;;2.40;;
51588;SDS011;37671;53.258;6.460;2022-10-23T15:04:36;6.25;;;2.75;;
51588;SDS011;37671;53.258;6.460;2022-10-23T15:07:03;5.82;;;2.17;;
51588;SDS011;37671;53.258;6.460;2022-10-23T15:09:29;8.07;;;2.60;;
51588;SDS011;37671;53.258;6.460;2022-10-23T15:11:58;7.40;;;2.40;;
51588;SDS011;37671;53.258;6.460;2022-10-23T15:14:24;6.30;;;2.47;;
51588;SDS011;37671;53.258;6.460;2022-10-23T15:16:49;6.25;;;2.05;;
51588;SDS011;37671;53.258;6.460;2022-10-23T15:19:15;7.95;;;2.85;;
51588;SDS011;37671;53.258;6.460;2022-10-23T15:21:41;4.70;;;2.45;;
51588;SDS011;37671;53.258;6.460;2022-10-23T15:24:06;8.13;;;2.53;;
51588;SDS011;37671;53.258;6.460;2022-10-23T15:26:32;6.10;;;2.38;;
51588;SDS011;37671;53.258;6.460;2022-10-23T15:28:59;7.53;;;2.33;;
51588;SDS011;37671;53.258;6.460;2022-10-23T15:33:57;5.90;;;1.88;;
51588;SDS011;37671;53.258;6.460;2022-10-23T15:36:24;10.23;;;2.42;;
51588;SDS011;37671;53.258;6.460;2022-10-23T15:38:50;5.03;;;1.98;;
51588;SDS011;37671;53.258;6.460;2022-10-23T15:41:26;6.22;;;2.25;;
51588;SDS011;37671;53.258;6.460;2022-10-23T15:43:53;6.10;;;2.30;;
51588;SDS011;37671;53.258;6.460;2022-10-23T15:46:19;6.65;;;2.00;;
51588;SDS011;37671;53.258;6.460;2022-10-23T15:48:45;7.93;;;1.98;;
51588;SDS011;37671;53.258;6.460;2022-10-23T15:51:10;9.07;;;2.00;;
51588;SDS011;37671;53.258;6.460;2022-10-23T15:53:36;9.52;;;2.15;;
51588;SDS011;37671;53.258;6.460;2022-10-23T15:56:02;6.70;;;2.50;;
51588;SDS011;37671;53.258;6.460;2022-10-23T15:58:27;8.32;;;2.17;;
51588;SDS011;37671;53.258;6.460;2022-10-23T16:00:53;6.20;;;2.30;;
51588;SDS011;37671;53.258;6.460;2022-10-23T16:03:19;5.47;;;2.10;;
51588;SDS011;37671;53.258;6.460;2022-10-23T16:05:45;5.88;;;2.20;;
51588;SDS011;37671;53.258;6.460;2022-10-23T16:08:10;6.55;;;2.30;;
51588;SDS011;37671;53.258;6.460;2022-10-23T16:10:39;7.70;;;2.30;;
51588;SDS011;37671;53.258;6.460;2022-10-23T16:13:06;10.20;;;2.58;;
51588;SDS011;37671;53.258;6.460;2022-10-23T16:15:35;6.63;;;2.30;;
51588;SDS011;37671;53.258;6.460;2022-10-23T16:18:01;8.10;;;2.60;;
51588;SDS011;37671;53.258;6.460;2022-10-23T16:20:27;5.55;;;2.15;;
51588;SDS011;37671;53.258;6.460;2022-10-23T16:22:53;5.30;;;2.25;;
51588;SDS011;37671;53.258;6.460;2022-10-23T16:25:19;6.75;;;2.38;;
51588;SDS011;37671;53.258;6.460;2022-10-23T16:27:44;6.55;;;2.20;;
51588;SDS011;37671;53.258;6.460;2022-10-23T16:30:10;7.60;;;2.72;;
51588;SDS011;37671;53.258;6.460;2022-10-23T16:32:38;10.32;;;2.78;;
51588;SDS011;37671;53.258;6.460;2022-10-23T16:35:04;7.30;;;2.22;;
51588;SDS011;37671;53.258;6.460;2022-10-23T16:37:30;7.90;;;2.50;;
51588;SDS011;37671;53.258;6.460;2022-10-23T16:39:57;8.35;;;2.70;;
51588;SDS011;37671;53.258;6.460;2022-10-23T16:42:23;12.88;;;2.60;;
51588;SDS011;37671;53.258;6.460;2022-10-23T16:44:49;6.90;;;2.33;;
51588;SDS011;37671;53.258;6.460;2022-10-23T16:47:15;6.95;;;2.78;;
51588;SDS011;37671;53.258;6.460;2022-10-23T16:49:40;8.25;;;3.00;;
51588;SDS011;37671;53.258;6.460;2022-10-23T16:52:06;3.95;;;1.90;;
51588;SDS011;37671;53.258;6.460;2022-10-23T16:54:31;5.07;;;2.67;;
51588;SDS011;37671;53.258;6.460;2022-10-23T16:56:57;7.28;;;1.95;;
51588;SDS011;37671;53.258;6.460;2022-10-23T16:59:23;5.57;;;2.63;;
51588;SDS011;37671;53.258;6.460;2022-10-23T17:01:49;8.15;;;2.50;;
51588;SDS011;37671;53.258;6.460;2022-10-23T17:04:14;7.35;;;2.28;;
51588;SDS011;37671;53.258;6.460;2022-10-23T17:06:40;7.57;;;2.50;;
51588;SDS011;37671;53.258;6.460;2022-10-23T17:09:05;6.95;;;2.30;;
51588;SDS011;37671;53.258;6.460;2022-10-23T17:11:33;8.80;;;2.50;;
51588;SDS011;37671;53.258;6.460;2022-10-23T17:14:01;6.18;;;2.40;;
51588;SDS011;37671;53.258;6.460;2022-10-23T17:16:41;7.95;;;2.72;;
51588;SDS011;37671;53.258;6.460;2022-10-23T17:19:09;6.75;;;2.40;;
51588;SDS011;37671;53.258;6.460;2022-10-23T17:21:36;5.47;;;2.63;;
51588;SDS011;37671;53.258;6.460;2022-10-23T17:24:03;7.32;;;2.55;;
51588;SDS011;37671;53.258;6.460;2022-10-23T17:26:30;5.63;;;2.08;;
51588;SDS011;37671;53.258;6.460;2022-10-23T17:28:57;7.75;;;2.75;;
51588;SDS011;37671;53.258;6.460;2022-10-23T17:31:25;9.82;;;2.70;;
51588;SDS011;37671;53.258;6.460;2022-10-23T17:33:53;12.32;;;2.78;;
51588;SDS011;37671;53.258;6.460;2022-10-23T17:36:23;6.20;;;2.63;;
51588;SDS011;37671;53.258;6.460;2022-10-23T17:38:50;7.53;;;2.50;;
51588;SDS011;37671;53.258;6.460;2022-10-23T17:41:17;11.30;;;2.17;;
51588;SDS011;37671;53.258;6.460;2022-10-23T17:43:44;6.10;;;2.38;;
51588;SDS011;37671;53.258;6.460;2022-10-23T17:46:10;5.95;;;2.20;;
51588;SDS011;37671;53.258;6.460;2022-10-23T17:48:38;8.80;;;2.58;;
51588;SDS011;37671;53.258;6.460;2022-10-23T17:51:11;7.80;;;2.40;;
51588;SDS011;37671;53.258;6.460;2022-10-23T17:53:42;7.10;;;2.53;;
51588;SDS011;37671;53.258;6.460;2022-10-23T17:56:10;6.25;;;2.30;;
51588;SDS011;37671;53.258;6.460;2022-10-23T17:58:37;7.38;;;2.15;;
51588;SDS011;37671;53.258;6.460;2022-10-23T18:01:07;9.85;;;2.58;;
51588;SDS011;37671;53.258;6.460;2022-10-23T18:03:34;7.55;;;2.70;;
51588;SDS011;37671;53.258;6.460;2022-10-23T18:06:07;10.20;;;2.63;;
51588;SDS011;37671;53.258;6.460;2022-10-23T18:08:35;11.90;;;3.42;;
51588;SDS011;37671;53.258;6.460;2022-10-23T18:11:03;7.63;;;2.67;;
51588;SDS011;37671;53.258;6.460;2022-10-23T18:13:31;5.00;;;2.38;;
51588;SDS011;37671;53.258;6.460;2022-10-23T18:16:01;7.45;;;2.42;;
51588;SDS011;37671;53.258;6.460;2022-10-23T18:18:28;8.43;;;2.65;;
51588;SDS011;37671;53.258;6.460;2022-10-23T18:20:55;5.90;;;2.15;;
51588;SDS011;37671;53.258;6.460;2022-10-23T18:23:25;8.85;;;2.55;;
51588;SDS011;37671;53.258;6.460;2022-10-23T18:25:52;5.30;;;2.13;;
51588;SDS011;37671;53.258;6.460;2022-10-23T18:28:17;7.43;;;2.40;;
51588;SDS011;37671;53.258;6.460;2022-10-23T18:30:44;6.25;;;2.35;;
51588;SDS011;37671;53.258;6.460;2022-10-23T18:33:10;5.50;;;2.53;;
51588;SDS011;37671;53.258;6.460;2022-10-23T18:35:35;9.00;;;2.80;;
51588;SDS011;37671;53.258;6.460;2022-10-23T18:38:01;5.95;;;2.50;;
51588;SDS011;37671;53.258;6.460;2022-10-23T18:40:31;5.50;;;2.60;;
51588;SDS011;37671;53.258;6.460;2022-10-23T18:42:58;7.07;;;2.92;;
51588;SDS011;37671;53.258;6.460;2022-10-23T18:45:24;6.13;;;3.00;;
51588;SDS011;37671;53.258;6.460;2022-10-23T18:47:50;7.90;;;3.17;;
51588;SDS011;37671;53.258;6.460;2022-10-23T18:50:16;8.35;;;3.00;;
51588;SDS011;37671;53.258;6.460;2022-10-23T18:52:41;9.93;;;3.63;;
51588;SDS011;37671;53.258;6.460;2022-10-23T18:55:07;9.40;;;3.63;;
51588;SDS011;37671;53.258;6.460;2022-10-23T18:57:34;8.18;;;3.25;;
51588;SDS011;37671;53.258;6.460;2022-10-23T19:00:00;8.40;;;3.30;;
51588;SDS011;37671;53.258;6.460;2022-10-23T19:02:27;13.30;;;3.53;;
51588;SDS011;37671;53.258;6.460;2022-10-23T19:04:54;6.82;;;3.10;;
51588;SDS011;37671;53.258;6.460;2022-10-23T19:07:19;9.20;;;3.50;;
51588;SDS011;37671;53.258;6.460;2022-10-23T19:09:45;8.52;;;3.22;;
51588;SDS011;37671;53.258;6.460;2022-10-23T19:12:11;8.68;;;4.13;;
51588;SDS011;37671;53.258;6.460;2022-10-23T19:14:37;9.57;;;4.18;;
51588;SDS011;37671;53.258;6.460;2022-10-23T19:17:13;7.18;;;4.18;;
51588;SDS011;37671;53.258;6.460;2022-10-23T19:19:50;10.88;;;4.60;;
51588;SDS011;37671;53.258;6.460;2022-10-23T19:22:17;11.73;;;4.18;;
51588;SDS011;37671;53.258;6.460;2022-10-23T19:25:03;7.57;;;3.75;;
51588;SDS011;37671;53.258;6.460;2022-10-23T19:27:35;9.02;;;2.97;;
51588;SDS011;37671;53.258;6.460;2022-10-23T19:30:03;11.38;;;3.35;;
51588;SDS011;37671;53.258;6.460;2022-10-23T19:32:32;7.28;;;2.92;;
51588;SDS011;37671;53.258;6.460;2022-10-23T19:34:58;9.38;;;2.92;;
51588;SDS011;37671;53.258;6.460;2022-10-23T19:37:25;6.90;;;3.08;;
51588;SDS011;37671;53.258;6.460;2022-10-23T19:39:51;9.93;;;2.70;;
51588;SDS011;37671;53.258;6.460;2022-10-23T19:42:16;6.30;;;3.28;;
51588;SDS011;37671;53.258;6.460;2022-10-23T19:44:42;11.45;;;2.90;;
51588;SDS011;37671;53.258;6.460;2022-10-23T19:47:07;7.15;;;3.28;;
51588;SDS011;37671;53.258;6.460;2022-10-23T19:49:33;8.93;;;3.42;;
51588;SDS011;37671;53.258;6.460;2022-10-23T19:51:58;6.85;;;3.05;;
51588;SDS011;37671;53.258;6.460;2022-10-23T19:54:24;11.52;;;3.50;;
51588;SDS011;37671;53.258;6.460;2022-10-23T19:56:50;9.50;;;3.00;;
51588;SDS011;37671;53.258;6.460;2022-10-23T19:59:15;7.43;;;3.38;;
51588;SDS011;37671;53.258;6.460;2022-10-23T20:01:41;7.93;;;3.22;;
51588;SDS011;37671;53.258;6.460;2022-10-23T20:04:07;7.63;;;3.03;;
51588;SDS011;37671;53.258;6.460;2022-10-23T20:06:34;8.57;;;3.20;;
51588;SDS011;37671;53.258;6.460;2022-10-23T20:09:01;11.85;;;3.30;;
51588;SDS011;37671;53.258;6.460;2022-10-23T20:11:33;13.90;;;3.20;;
51588;SDS011;37671;53.258;6.460;2022-10-23T20:14:00;8.43;;;3.22;;
51588;SDS011;37671;53.258;6.460;2022-10-23T20:16:27;8.50;;;3.40;;
51588;SDS011;37671;53.258;6.460;2022-10-23T20:18:55;6.15;;;3.15;;
51588;SDS011;37671;53.258;6.460;2022-10-23T20:21:22;7.32;;;2.97;;
51588;SDS011;37671;53.258;6.460;2022-10-23T20:23:48;10.27;;;2.80;;
51588;SDS011;37671;53.258;6.460;2022-10-23T20:26:15;9.38;;;2.90;;
51588;SDS011;37671;53.258;6.460;2022-10-23T20:28:44;6.47;;;2.70;;
51588;SDS011;37671;53.258;6.460;2022-10-23T20:31:11;9.75;;;2.63;;
51588;SDS011;37671;53.258;6.460;2022-10-23T20:33:38;7.22;;;2.67;;
51588;SDS011;37671;53.258;6.460;2022-10-23T20:36:04;6.03;;;2.50;;
51588;SDS011;37671;53.258;6.460;2022-10-23T20:38:32;8.48;;;2.85;;
51588;SDS011;37671;53.258;6.460;2022-10-23T20:40:58;7.00;;;3.10;;
51588;SDS011;37671;53.258;6.460;2022-10-23T20:43:28;8.98;;;3.00;;
51588;SDS011;37671;53.258;6.460;2022-10-23T20:45:56;10.05;;;3.15;;
51588;SDS011;37671;53.258;6.460;2022-10-23T20:48:23;8.23;;;3.53;;
51588;SDS011;37671;53.258;6.460;2022-10-23T20:50:49;8.05;;;2.97;;
51588;SDS011;37671;53.258;6.460;2022-10-23T20:53:15;8.63;;;2.97;;
51588;SDS011;37671;53.258;6.460;2022-10-23T20:55:42;9.57;;;3.40;;
51588;SDS011;37671;53.258;6.460;2022-10-23T20:58:08;8.98;;;3.13;;
51588;SDS011;37671;53.258;6.460;2022-10-23T21:00:33;10.38;;;3.88;;
51588;SDS011;37671;53.258;6.460;2022-10-23T21:02:59;9.27;;;3.60;;
51588;SDS011;37671;53.258;6.460;2022-10-23T21:05:26;10.98;;;4.10;;